Fort Lewis, Washington
Current Conditions -  °F | °C
As of 2:58 PM on Monday 22 Dec 2014 (Local Time) from KGRF Reporting Station
Broken Clouds Broken Clouds  
Wind Chill: 49°   Ceiling: 13000
Heat Index: 49°   Visibility: 10mi
Dew Point: 46°   Wind: 0mph
Humidity: 90%   Direction: NA
Pressure: 30.37"   Gusts: NA
Location:  47.04°N, 122.6°W
Report Text: KGRF 222258Z 00000KT 10SM BKN130 09/08 A3037 RMK AO2A SLP289 WND DATA ESTMD T00920077 $
Loading
Personal Weather Stations






























Interactive Weather Map New forecast layout! Learn more

10-Day Weather Forecast

Advertisements
Track Severe Weather on mobile